createdAt,value
2022-09-26T00:01:36.965Z,98497.00
2022-09-26T00:04:27.892Z,98495.40
2022-09-26T00:06:58.505Z,98489.80
2022-09-26T00:09:27.315Z,98491.00
2022-09-26T00:11:55.262Z,98483.80
2022-09-26T00:14:28.294Z,98482.00
2022-09-26T00:16:56.379Z,98476.60
2022-09-26T00:19:24.558Z,98478.40
2022-09-26T00:21:52.562Z,98475.40
2022-09-26T00:24:20.937Z,98469.20
2022-09-26T00:26:49.018Z,98467.20
2022-09-26T00:29:16.920Z,98459.60
2022-09-26T00:31:45.776Z,98454.00
2022-09-26T00:34:18.864Z,98456.20
2022-09-26T00:36:46.744Z,98453.00
2022-09-26T00:39:15.741Z,98455.40
2022-09-26T00:41:43.894Z,98443.00
2022-09-26T00:44:44.942Z,98443.00
2022-09-26T00:47:35.292Z,98445.00
2022-09-26T00:50:16.208Z,98442.40
2022-09-26T00:53:07.722Z,98440.00
2022-09-26T00:55:39.272Z,98438.20
2022-09-26T00:58:13.935Z,98443.40
2022-09-26T01:00:42.474Z,98441.20
2022-09-26T01:03:10.655Z,98443.40
2022-09-26T01:05:38.733Z,98437.60
2022-09-26T01:08:06.597Z,98441.40
2022-09-26T01:10:36.402Z,98442.40
2022-09-26T01:13:08.206Z,98442.80
2022-09-26T01:15:36.646Z,98434.40
2022-09-26T01:18:07.268Z,98431.20
2022-09-26T01:20:56.954Z,98433.60
2022-09-26T01:23:42.604Z,98442.40
2022-09-26T01:26:35.595Z,98435.40
2022-09-26T01:29:26.542Z,98431.20
2022-09-26T01:32:44.235Z,98433.00
2022-09-26T01:35:19.990Z,98432.80
2022-09-26T01:38:56.858Z,98436.40
2022-09-26T01:41:59.753Z,98427.20
2022-09-26T01:44:42.933Z,98427.80
2022-09-26T01:48:02.778Z,98417.60
2022-09-26T01:50:50.124Z,98418.00
2022-09-26T01:54:10.182Z,98410.00
2022-09-26T01:56:39.900Z,98406.80
2022-09-26T01:59:16.763Z,98402.80
2022-09-26T02:01:49.803Z,98401.60
2022-09-26T02:04:22.601Z,98400.00
2022-09-26T02:07:10.634Z,98399.20
2022-09-26T02:09:43.392Z,98395.00
2022-09-26T02:12:24.838Z,98396.40
2022-09-26T02:14:54.554Z,98394.40
2022-09-26T02:17:27.360Z,98400.20
2022-09-26T02:20:10.289Z,98392.20
2022-09-26T02:22:38.511Z,98396.40
2022-09-26T02:25:07.725Z,98386.60
2022-09-26T02:27:36.404Z,98387.40
2022-09-26T02:30:05.845Z,98390.60
2022-09-26T02:32:33.772Z,98386.60
2022-09-26T02:35:22.245Z,98386.80
2022-09-26T02:37:50.811Z,98387.00
2022-09-26T02:40:20.049Z,98387.20
2022-09-26T02:42:59.442Z,98388.40
2022-09-26T02:45:44.360Z,98386.80
2022-09-26T02:49:09.561Z,98385.80
2022-09-26T02:52:21.741Z,98383.60
2022-09-26T02:55:11.508Z,98376.60
2022-09-26T02:57:55.752Z,98375.40
2022-09-26T03:00:25.116Z,98379.00
2022-09-26T03:03:03.180Z,98367.40
2022-09-26T03:05:31.753Z,98364.80
2022-09-26T03:08:09.341Z,98361.20
2022-09-26T03:10:37.522Z,98357.40
2022-09-26T03:13:16.653Z,98359.40
2022-09-26T03:15:54.892Z,98359.20
2022-09-26T03:18:31.732Z,98356.40
2022-09-26T03:20:59.906Z,98355.20
2022-09-26T03:23:28.386Z,98355.20
2022-09-26T03:26:17.624Z,98363.80
2022-09-26T03:28:53.709Z,98355.00
2022-09-26T03:31:22.139Z,98353.60
2022-09-26T03:33:56.325Z,98363.20
2022-09-26T03:36:24.585Z,98361.80
2022-09-26T03:38:52.667Z,98360.20
2022-09-26T03:41:35.053Z,98350.00
2022-09-26T03:44:08.360Z,98360.60
2022-09-26T03:46:55.313Z,98344.60
2022-09-26T03:49:23.690Z,98342.80
2022-09-26T03:51:51.613Z,98342.80
2022-09-26T03:54:19.990Z,98334.00
2022-09-26T03:56:48.880Z,98334.00
2022-09-26T03:59:17.673Z,98339.80
2022-09-26T04:01:46.114Z,98335.80
2022-09-26T04:04:16.286Z,98332.60
2022-09-26T04:06:44.875Z,98330.80
2022-09-26T04:09:16.835Z,98329.00
2022-09-26T04:11:48.463Z,98323.80
2022-09-26T04:14:17.352Z,98322.60
2022-09-26T04:16:47.774Z,98325.40
2022-09-26T04:19:28.868Z,98324.40
2022-09-26T04:21:58.883Z,98321.80
2022-09-26T04:24:28.065Z,98320.40
2022-09-26T04:26:57.432Z,98319.20
2022-09-26T04:29:27.000Z,98315.00
2022-09-26T04:32:02.371Z,98309.80
2022-09-26T04:34:39.730Z,98304.60
2022-09-26T04:37:08.881Z,98303.60
2022-09-26T04:39:36.673Z,98305.80
2022-09-26T04:42:04.854Z,98302.80
2022-09-26T04:44:32.632Z,98307.20
2022-09-26T04:47:00.421Z,98303.00
2022-09-26T04:49:42.971Z,98299.60
2022-09-26T04:52:10.641Z,98293.20
2022-09-26T04:54:39.142Z,98298.00
2022-09-26T04:57:07.043Z,98299.40
2022-09-26T04:59:36.801Z,98296.60
2022-09-26T05:02:08.012Z,98300.80
2022-09-26T05:04:42.022Z,98298.20
2022-09-26T05:07:09.623Z,98296.20
2022-09-26T05:09:38.304Z,98298.00
2022-09-26T05:12:16.928Z,98300.80
2022-09-26T05:14:46.016Z,98300.00
2022-09-26T05:17:15.454Z,98292.20
2022-09-26T05:19:45.244Z,98285.20
2022-09-26T05:22:49.655Z,98291.80
2022-09-26T05:25:36.463Z,98302.40
2022-09-26T05:28:06.587Z,98300.00
2022-09-26T05:30:35.306Z,98297.80
2022-09-26T05:33:04.516Z,98302.80
2022-09-26T05:35:35.918Z,98297.40
2022-09-26T05:38:07.379Z,98294.60
2022-09-26T05:40:55.943Z,98295.00
2022-09-26T05:43:36.319Z,98294.60
2022-09-26T05:46:08.349Z,98290.40
2022-09-26T05:48:40.820Z,98298.20
2022-09-26T05:51:15.108Z,98300.40
2022-09-26T05:53:45.668Z,98298.40
2022-09-26T05:56:18.711Z,98291.20
2022-09-26T05:59:12.680Z,98296.40
2022-09-26T06:01:59.728Z,98291.60
2022-09-26T06:04:40.059Z,98296.40
2022-09-26T06:07:40.399Z,98290.20
2022-09-26T06:10:13.208Z,98291.00
2022-09-26T06:13:03.240Z,98290.00
2022-09-26T06:15:34.237Z,98290.80
2022-09-26T06:18:04.720Z,98290.20
2022-09-26T06:20:33.478Z,98287.40
2022-09-26T06:23:01.630Z,98287.60
2022-09-26T06:25:29.903Z,98289.00
2022-09-26T06:28:01.650Z,98290.40
2022-09-26T06:30:32.878Z,98291.80
2022-09-26T06:33:12.137Z,98293.60
2022-09-26T06:36:04.715Z,98290.40
2022-09-26T06:38:38.119Z,98294.60
2022-09-26T06:41:16.297Z,98293.60
2022-09-26T06:43:45.185Z,98293.60
2022-09-26T06:46:31.112Z,98294.60
2022-09-26T06:49:12.959Z,98301.40
2022-09-26T06:51:49.441Z,98296.60
2022-09-26T06:54:18.671Z,98297.00
2022-09-26T06:56:46.700Z,98292.80
2022-09-26T06:59:16.679Z,98294.00
2022-09-26T07:02:06.073Z,98294.40
2022-09-26T07:04:52.581Z,98293.80
2022-09-26T07:07:32.932Z,98290.40
2022-09-26T07:10:01.023Z,98283.20
2022-09-26T07:12:40.252Z,98278.80
2022-09-26T07:15:09.413Z,98288.00
2022-09-26T07:17:37.021Z,98287.20
2022-09-26T07:20:28.763Z,98289.00
2022-09-26T07:23:10.630Z,98287.40
2022-09-26T07:25:39.622Z,98286.40
2022-09-26T07:28:27.762Z,98289.00
2022-09-26T07:30:57.278Z,98281.80
2022-09-26T07:33:43.632Z,98280.80
2022-09-26T07:36:12.965Z,98279.80
2022-09-26T07:38:43.945Z,98279.00
2022-09-26T07:41:12.004Z,98288.00
2022-09-26T07:46:48.961Z,98286.80
2022-09-26T07:49:35.499Z,98288.20
2022-09-26T07:52:25.985Z,98290.80
2022-09-26T07:55:16.354Z,98287.40
2022-09-26T07:57:52.214Z,98279.60
2022-09-26T08:00:29.167Z,98273.20
2022-09-26T08:03:28.804Z,98271.20
2022-09-26T08:06:00.926Z,98268.20
2022-09-26T08:08:58.338Z,98276.40
2022-09-26T08:11:46.814Z,98276.60
2022-09-26T08:14:24.686Z,98276.00
2022-09-26T08:17:20.024Z,98278.60
2022-09-26T08:19:48.893Z,98280.60
2022-09-26T08:22:17.164Z,98284.00
2022-09-26T08:24:49.844Z,98273.80
2022-09-26T08:27:35.523Z,98274.60
2022-09-26T08:30:25.184Z,98273.20
2022-09-26T08:32:54.205Z,98275.80
2022-09-26T08:35:22.125Z,98273.00
2022-09-26T08:38:09.184Z,98265.40
2022-09-26T08:41:24.082Z,98268.20
2022-09-26T08:44:49.675Z,98270.00
2022-09-26T08:47:50.815Z,98267.00
2022-09-26T08:50:53.233Z,98267.80
2022-09-26T08:53:24.953Z,98265.60
2022-09-26T08:55:55.694Z,98264.00
2022-09-26T08:58:40.086Z,98266.00
2022-09-26T09:01:19.106Z,98258.20
2022-09-26T09:04:41.423Z,98254.60
2022-09-26T09:07:30.464Z,98259.60
2022-09-26T09:10:08.114Z,98249.40
2022-09-26T09:13:16.797Z,98253.60
2022-09-26T09:16:26.420Z,98253.60
2022-09-26T09:19:27.683Z,98251.20
2022-09-26T09:22:40.393Z,98246.80
2022-09-26T09:25:48.065Z,98243.00
2022-09-26T09:28:38.164Z,98235.80
2022-09-26T09:31:10.073Z,98235.20
2022-09-26T09:33:53.984Z,98237.60
2022-09-26T09:36:40.033Z,98233.40
2022-09-26T09:39:37.443Z,98222.60
2022-09-26T09:42:46.073Z,98221.40
2022-09-26T09:45:48.855Z,98222.20
2022-09-26T09:48:17.233Z,98228.20
2022-09-26T09:51:35.539Z,98225.00
2022-09-26T09:55:01.823Z,98226.00
2022-09-26T09:57:55.183Z,98226.40
2022-09-26T10:00:24.392Z,98227.60
2022-09-26T10:03:31.674Z,98232.80
2022-09-26T10:06:01.484Z,98230.40
2022-09-26T10:08:42.413Z,98231.60
2022-09-26T10:11:52.355Z,98223.20
2022-09-26T10:15:06.401Z,98223.20
2022-09-26T10:18:30.290Z,98228.00
2022-09-26T10:21:12.635Z,98226.40
2022-09-26T10:23:47.153Z,98225.20
2022-09-26T10:26:40.833Z,98219.80
2022-09-26T10:29:25.145Z,98221.20
2022-09-26T10:31:58.294Z,98220.00
2022-09-26T10:34:31.363Z,98216.80
2022-09-26T10:37:25.753Z,98220.00
2022-09-26T10:40:20.243Z,98217.20
2022-09-26T10:42:48.823Z,98212.80
2022-09-26T10:45:27.538Z,98208.40
2022-09-26T10:48:21.722Z,98205.40
2022-09-26T10:51:23.753Z,98206.20
2022-09-26T10:54:09.148Z,98208.00
2022-09-26T10:56:48.011Z,98199.20
2022-09-26T10:59:18.898Z,98203.20
2022-09-26T11:01:51.345Z,98198.20
2022-09-26T11:05:07.092Z,98198.40
2022-09-26T11:07:47.013Z,98196.40
2022-09-26T11:10:25.714Z,98199.00
2022-09-26T11:13:18.122Z,98198.00
2022-09-26T11:16:01.315Z,98186.00
2022-09-26T11:18:46.226Z,98191.60
2022-09-26T11:21:29.077Z,98192.20
2022-09-26T11:24:04.984Z,98186.60
2022-09-26T11:26:59.782Z,98185.60
2022-09-26T11:29:45.400Z,98184.40
2022-09-26T11:32:41.419Z,98180.40
2022-09-26T11:35:55.140Z,98179.20
2022-09-26T11:38:48.258Z,98172.60
2022-09-26T11:41:39.917Z,98168.40
2022-09-26T11:44:42.915Z,98163.40
2022-09-26T11:47:40.732Z,98162.20
2022-09-26T11:50:36.494Z,98156.00
2022-09-26T11:54:01.603Z,98154.20
2022-09-26T11:56:38.487Z,98150.40
2022-09-26T11:59:32.580Z,98151.00
2022-09-26T12:02:26.569Z,98151.80
2022-09-26T12:05:26.107Z,98158.40
2022-09-26T12:08:27.653Z,98153.40
2022-09-26T12:11:15.553Z,98150.20
2022-09-26T12:14:15.921Z,98149.60
2022-09-26T12:16:52.033Z,98146.60
2022-09-26T12:19:44.030Z,98142.00
2022-09-26T12:22:42.609Z,98136.80
2022-09-26T12:25:56.097Z,98140.60
2022-09-26T12:28:42.909Z,98135.20
2022-09-26T12:31:40.944Z,98138.20
2022-09-26T12:34:51.778Z,98131.60
2022-09-26T12:37:47.179Z,98129.20
2022-09-26T12:41:37.538Z,98132.80
2022-09-26T16:16:02.968Z,98108.40
2022-09-26T16:19:15.839Z,98107.00
2022-09-26T16:21:42.881Z,98101.60
2022-09-26T16:24:33.818Z,98105.80
2022-09-26T16:27:00.628Z,98103.20
2022-09-26T16:29:34.446Z,98101.20
2022-09-26T16:32:02.782Z,98102.00
2022-09-26T16:34:29.655Z,98100.60
2022-09-26T16:36:57.118Z,98093.20
2022-09-26T16:39:29.001Z,98095.80
2022-09-26T16:42:03.247Z,98101.80
2022-09-26T16:44:40.690Z,98103.60
2022-09-26T16:47:35.307Z,98110.60
2022-09-26T16:50:30.891Z,98106.20
2022-09-26T16:52:57.857Z,98102.00
2022-09-26T16:55:25.968Z,98105.60
2022-09-26T16:57:57.559Z,98107.20
2022-09-26T17:00:49.981Z,98111.80
2022-09-26T17:03:30.909Z,98111.00
2022-09-26T17:05:58.683Z,98108.60
2022-09-26T17:08:26.306Z,98111.20
2022-09-26T17:10:55.873Z,98113.20
2022-09-26T17:13:25.075Z,98113.80
2022-09-26T17:15:54.937Z,98112.60
2022-09-26T17:18:28.512Z,98108.80
2022-09-26T17:20:55.869Z,98100.40
2022-09-26T17:23:39.364Z,98100.20
2022-09-26T17:26:07.541Z,98102.40
2022-09-26T17:28:38.313Z,98095.40
2022-09-26T17:31:06.978Z,98096.00
2022-09-26T17:33:39.836Z,98093.60
2022-09-26T17:36:10.309Z,98082.80
2022-09-26T17:38:40.841Z,98078.20
2022-09-26T17:41:12.022Z,98077.40
2022-09-26T17:43:38.761Z,98077.40
2022-09-26T17:46:05.922Z,98074.00
2022-09-26T17:48:32.635Z,98073.80
2022-09-26T17:51:01.496Z,98072.80
2022-09-26T17:53:36.807Z,98077.00
2022-09-26T17:56:08.301Z,98077.80
2022-09-26T17:58:42.046Z,98085.40
2022-09-26T18:01:33.727Z,98081.60
2022-09-26T18:04:03.498Z,98078.80
2022-09-26T18:06:32.274Z,98081.20
2022-09-26T18:09:04.648Z,98078.60
2022-09-26T18:11:33.818Z,98077.00
2022-09-26T18:14:01.661Z,98070.00
2022-09-26T18:16:28.294Z,98060.80
2022-09-26T18:18:55.449Z,98052.00
2022-09-26T18:21:23.614Z,98047.20
2022-09-26T18:23:52.642Z,98046.00
2022-09-26T18:26:28.770Z,98051.40
2022-09-26T18:28:56.760Z,98053.40
2022-09-26T18:31:28.592Z,98055.20
2022-09-26T18:33:56.187Z,98065.40
2022-09-26T18:36:23.414Z,98073.80
2022-09-26T18:38:49.988Z,98077.00
2022-09-26T18:41:18.769Z,98077.00
2022-09-26T18:43:45.173Z,98076.00
2022-09-26T18:46:13.864Z,98082.60
2022-09-26T18:48:41.305Z,98076.00
2022-09-26T18:51:08.221Z,98073.80
2022-09-26T18:53:36.969Z,98076.00
2022-09-26T18:56:26.790Z,98068.80
2022-09-26T18:58:53.295Z,98070.00
2022-09-26T19:01:25.125Z,98070.00
2022-09-26T19:03:51.643Z,98076.20
2022-09-26T19:06:24.108Z,98077.00
2022-09-26T19:09:19.025Z,98075.40
2022-09-26T19:11:46.480Z,98086.40
2022-09-26T19:14:14.201Z,98076.20
2022-09-26T19:16:45.179Z,98075.00
2022-09-26T19:19:11.784Z,98074.20
2022-09-26T19:21:57.235Z,98072.60
2022-09-26T19:24:49.553Z,98068.20
2022-09-26T19:27:24.078Z,98071.60
2022-09-26T19:30:05.953Z,98073.40
2022-09-26T19:32:38.244Z,98074.80
2022-09-26T19:35:35.795Z,98078.60
2022-09-26T19:38:03.959Z,98080.40
2022-09-26T19:40:30.661Z,98079.80
2022-09-26T19:42:57.887Z,98079.00
2022-09-26T19:45:24.879Z,98078.40
2022-09-26T19:47:53.428Z,98088.00
2022-09-26T19:50:22.879Z,98084.80
2022-09-26T19:52:51.157Z,98082.80
2022-09-26T19:55:23.669Z,98083.60
2022-09-26T19:57:52.182Z,98084.00
2022-09-26T20:00:19.519Z,98086.20
2022-09-26T20:02:46.579Z,98080.80
2022-09-26T20:05:21.143Z,98079.60
2022-09-26T20:07:47.781Z,98082.00
2022-09-26T20:10:17.079Z,98087.60
2022-09-26T20:12:44.193Z,98085.40
2022-09-26T20:15:12.707Z,98091.60
2022-09-26T20:17:41.102Z,98085.00
2022-09-26T20:20:16.390Z,98089.00
2022-09-26T20:22:43.884Z,98081.40
2022-09-26T20:25:15.295Z,98082.60
2022-09-26T20:27:41.950Z,98084.00
2022-09-26T20:30:33.866Z,98083.80
2022-09-26T20:33:00.846Z,98077.60
2022-09-26T20:35:31.907Z,98071.60
2022-09-26T20:38:04.375Z,98076.20
2022-09-26T20:40:31.212Z,98075.40
2022-09-26T20:43:03.169Z,98072.00
2022-09-26T20:45:40.289Z,98069.00
2022-09-26T20:48:24.700Z,98072.40
2022-09-26T20:50:51.528Z,98068.80
2022-09-26T20:53:18.907Z,98068.40
2022-09-26T20:55:47.004Z,98065.00
2022-09-26T20:58:13.672Z,98068.60
2022-09-26T21:00:41.780Z,98073.80
2022-09-26T21:03:10.770Z,98068.20
2022-09-26T21:05:37.533Z,98069.80
2022-09-26T21:08:28.013Z,98061.80
2022-09-26T21:10:55.582Z,98055.60
2022-09-26T21:13:23.024Z,98054.40
2022-09-26T21:15:49.609Z,98048.20
2022-09-26T21:18:28.000Z,98048.00
2022-09-26T21:21:04.001Z,98046.80
2022-09-26T21:23:50.713Z,98047.60
2022-09-26T21:26:22.490Z,98052.60
2022-09-26T21:28:49.676Z,98054.00
2022-09-26T21:31:27.535Z,98057.20
2022-09-26T21:33:55.935Z,98045.00
2022-09-26T21:36:22.451Z,98048.80
2022-09-26T21:38:50.003Z,98045.20
2022-09-26T21:41:16.370Z,98044.00
2022-09-26T21:43:46.692Z,98045.20
2022-09-26T21:46:13.338Z,98050.80
2022-09-26T21:48:39.923Z,98050.20
2022-09-26T21:51:07.722Z,98046.80
2022-09-26T21:53:48.261Z,98041.60
2022-09-26T21:56:21.275Z,98045.20
2022-09-26T21:58:47.811Z,98046.20
2022-09-26T22:01:14.441Z,98048.40
2022-09-26T22:03:41.204Z,98042.40
2022-09-26T22:06:11.252Z,98043.00
2022-09-26T22:08:38.841Z,98041.40
2022-09-26T22:11:08.445Z,98037.20
2022-09-26T22:13:36.126Z,98027.00
2022-09-26T22:16:06.980Z,98027.80
2022-09-26T22:18:36.655Z,98023.00
2022-09-26T22:21:04.137Z,98024.60
2022-09-26T22:23:32.098Z,98020.00
2022-09-26T22:25:58.855Z,98013.60
2022-09-26T22:28:26.297Z,98016.00
2022-09-26T22:30:54.084Z,98007.40
2022-09-26T22:33:21.921Z,98008.20
2022-09-26T22:35:49.420Z,98010.60
2022-09-26T22:38:17.483Z,98003.40
2022-09-26T22:40:45.037Z,98006.20
2022-09-26T22:43:12.238Z,98004.00
2022-09-26T22:45:38.586Z,97991.60
2022-09-26T22:48:05.005Z,97983.20
2022-09-26T22:50:31.801Z,97987.20
2022-09-26T22:52:58.812Z,97984.80
2022-09-26T22:55:25.552Z,97978.60
2022-09-26T22:57:52.196Z,97982.60
2022-09-26T23:00:19.235Z,97982.00
2022-09-26T23:02:45.818Z,97975.40
2022-09-26T23:05:12.462Z,97974.40
2022-09-26T23:07:39.048Z,97973.20
2022-09-26T23:10:06.996Z,97975.00
2022-09-26T23:12:34.065Z,97969.20
2022-09-26T23:15:00.626Z,97967.60
2022-09-26T23:17:27.543Z,97963.20
2022-09-26T23:19:54.018Z,97957.80
2022-09-26T23:22:20.679Z,97958.40
2022-09-26T23:24:47.116Z,97955.80
2022-09-26T23:27:13.889Z,97961.80
2022-09-26T23:29:41.167Z,97957.00
2022-09-26T23:32:07.597Z,97956.60
2022-09-26T23:34:34.426Z,97959.00
2022-09-26T23:37:01.054Z,97954.60
2022-09-26T23:39:27.555Z,97956.20
2022-09-26T23:41:54.020Z,97956.40
2022-09-26T23:44:20.460Z,97959.80
2022-09-26T23:46:46.991Z,97961.00
2022-09-26T23:49:13.493Z,97951.80
2022-09-26T23:51:41.047Z,97946.20
2022-09-26T23:54:07.808Z,97945.00
2022-09-26T23:56:34.344Z,97944.20
2022-09-26T23:59:00.816Z,97938.00
